sensor_id;sensor_type;location;lat;lon;timestamp;P1;durP1;ratioP1;P2;durP2;ratioP2
2406;SDS011;37709;53.480;9.688;2023-11-22T00:00:29;6.07;;;3.67;;
2406;SDS011;37709;53.480;9.688;2023-11-22T00:02:57;3.73;;;3.20;;
2406;SDS011;37709;53.480;9.688;2023-11-22T00:05:26;6.10;;;3.33;;
2406;SDS011;37709;53.480;9.688;2023-11-22T00:07:54;4.00;;;3.07;;
2406;SDS011;37709;53.480;9.688;2023-11-22T00:10:21;5.63;;;3.23;;
2406;SDS011;37709;53.480;9.688;2023-11-22T00:12:50;5.20;;;3.33;;
2406;SDS011;37709;53.480;9.688;2023-11-22T00:15:18;3.87;;;3.10;;
2406;SDS011;37709;53.480;9.688;2023-11-22T00:17:46;4.93;;;3.17;;
2406;SDS011;37709;53.480;9.688;2023-11-22T00:20:14;5.53;;;3.20;;
2406;SDS011;37709;53.480;9.688;2023-11-22T00:22:45;5.67;;;3.80;;
2406;SDS011;37709;53.480;9.688;2023-11-22T00:25:15;5.17;;;3.27;;
2406;SDS011;37709;53.480;9.688;2023-11-22T00:27:42;4.07;;;3.30;;
2406;SDS011;37709;53.480;9.688;2023-11-22T00:30:10;4.40;;;3.10;;
2406;SDS011;37709;53.480;9.688;2023-11-22T00:32:38;5.53;;;3.30;;
2406;SDS011;37709;53.480;9.688;2023-11-22T00:35:08;5.93;;;3.73;;
2406;SDS011;37709;53.480;9.688;2023-11-22T00:37:37;5.50;;;4.03;;
2406;SDS011;37709;53.480;9.688;2023-11-22T00:40:06;7.10;;;5.57;;
2406;SDS011;37709;53.480;9.688;2023-11-22T00:42:38;7.33;;;4.80;;
2406;SDS011;37709;53.480;9.688;2023-11-22T00:45:07;5.70;;;4.20;;
2406;SDS011;37709;53.480;9.688;2023-11-22T00:47:37;6.03;;;3.63;;
2406;SDS011;37709;53.480;9.688;2023-11-22T00:50:06;7.23;;;4.07;;
2406;SDS011;37709;53.480;9.688;2023-11-22T00:52:35;5.30;;;3.87;;
2406;SDS011;37709;53.480;9.688;2023-11-22T00:55:02;6.90;;;3.70;;
2406;SDS011;37709;53.480;9.688;2023-11-22T00:57:30;4.13;;;3.27;;
2406;SDS011;37709;53.480;9.688;2023-11-22T00:59:58;6.57;;;4.10;;
2406;SDS011;37709;53.480;9.688;2023-11-22T01:02:26;6.67;;;3.97;;
2406;SDS011;37709;53.480;9.688;2023-11-22T01:04:54;8.20;;;4.03;;
2406;SDS011;37709;53.480;9.688;2023-11-22T01:07:22;8.40;;;4.60;;
2406;SDS011;37709;53.480;9.688;2023-11-22T01:09:50;5.90;;;4.00;;
2406;SDS011;37709;53.480;9.688;2023-11-22T01:12:19;10.43;;;6.13;;
2406;SDS011;37709;53.480;9.688;2023-11-22T01:14:47;15.13;;;9.50;;
2406;SDS011;37709;53.480;9.688;2023-11-22T01:17:15;10.87;;;6.57;;
2406;SDS011;37709;53.480;9.688;2023-11-22T01:19:43;8.97;;;5.00;;
2406;SDS011;37709;53.480;9.688;2023-11-22T01:22:10;8.83;;;5.30;;
2406;SDS011;37709;53.480;9.688;2023-11-22T01:24:39;6.67;;;4.53;;
2406;SDS011;37709;53.480;9.688;2023-11-22T01:27:07;6.90;;;4.30;;
2406;SDS011;37709;53.480;9.688;2023-11-22T01:29:34;5.63;;;3.37;;
2406;SDS011;37709;53.480;9.688;2023-11-22T01:32:03;5.70;;;3.80;;
2406;SDS011;37709;53.480;9.688;2023-11-22T01:34:31;8.00;;;5.10;;
2406;SDS011;37709;53.480;9.688;2023-11-22T01:37:01;7.00;;;4.37;;
2406;SDS011;37709;53.480;9.688;2023-11-22T01:39:30;7.17;;;4.53;;
2406;SDS011;37709;53.480;9.688;2023-11-22T01:41:58;6.40;;;4.10;;
2406;SDS011;37709;53.480;9.688;2023-11-22T01:44:26;5.57;;;4.40;;
2406;SDS011;37709;53.480;9.688;2023-11-22T01:46:55;8.57;;;4.40;;
2406;SDS011;37709;53.480;9.688;2023-11-22T01:49:24;7.80;;;3.50;;
2406;SDS011;37709;53.480;9.688;2023-11-22T01:51:53;6.93;;;4.47;;
2406;SDS011;37709;53.480;9.688;2023-11-22T01:54:23;6.40;;;3.90;;
2406;SDS011;37709;53.480;9.688;2023-11-22T01:56:51;7.53;;;4.53;;
2406;SDS011;37709;53.480;9.688;2023-11-22T01:59:20;6.20;;;3.67;;
2406;SDS011;37709;53.480;9.688;2023-11-22T02:01:48;4.77;;;3.90;;
2406;SDS011;37709;53.480;9.688;2023-11-22T02:04:16;4.87;;;3.80;;
2406;SDS011;37709;53.480;9.688;2023-11-22T02:06:45;6.57;;;4.17;;
2406;SDS011;37709;53.480;9.688;2023-11-22T02:09:13;6.00;;;4.07;;
2406;SDS011;37709;53.480;9.688;2023-11-22T02:11:43;7.03;;;4.50;;
2406;SDS011;37709;53.480;9.688;2023-11-22T02:14:12;4.73;;;3.50;;
2406;SDS011;37709;53.480;9.688;2023-11-22T02:16:40;6.33;;;3.57;;
2406;SDS011;37709;53.480;9.688;2023-11-22T02:19:12;5.40;;;4.43;;
2406;SDS011;37709;53.480;9.688;2023-11-22T02:21:42;6.70;;;3.93;;
2406;SDS011;37709;53.480;9.688;2023-11-22T02:24:11;5.43;;;3.90;;
2406;SDS011;37709;53.480;9.688;2023-11-22T02:26:43;6.90;;;3.40;;
2406;SDS011;37709;53.480;9.688;2023-11-22T02:29:11;5.90;;;3.20;;
2406;SDS011;37709;53.480;9.688;2023-11-22T02:31:40;5.40;;;3.50;;
2406;SDS011;37709;53.480;9.688;2023-11-22T02:34:09;6.33;;;3.40;;
2406;SDS011;37709;53.480;9.688;2023-11-22T02:36:37;3.47;;;2.97;;
2406;SDS011;37709;53.480;9.688;2023-11-22T02:39:05;4.57;;;3.03;;
2406;SDS011;37709;53.480;9.688;2023-11-22T02:41:33;5.50;;;3.50;;
2406;SDS011;37709;53.480;9.688;2023-11-22T02:44:02;3.63;;;2.70;;
2406;SDS011;37709;53.480;9.688;2023-11-22T02:46:29;3.73;;;2.97;;
2406;SDS011;37709;53.480;9.688;2023-11-22T02:48:58;5.93;;;4.03;;
2406;SDS011;37709;53.480;9.688;2023-11-22T02:51:26;5.00;;;3.90;;
2406;SDS011;37709;53.480;9.688;2023-11-22T02:53:53;6.30;;;3.60;;
2406;SDS011;37709;53.480;9.688;2023-11-22T02:56:21;8.03;;;3.77;;
2406;SDS011;37709;53.480;9.688;2023-11-22T02:58:49;4.40;;;3.30;;
2406;SDS011;37709;53.480;9.688;2023-11-22T03:01:18;4.90;;;3.50;;
2406;SDS011;37709;53.480;9.688;2023-11-22T03:03:46;6.43;;;4.43;;
2406;SDS011;37709;53.480;9.688;2023-11-22T03:06:14;7.90;;;3.70;;
2406;SDS011;37709;53.480;9.688;2023-11-22T03:09:01;5.80;;;3.93;;
2406;SDS011;37709;53.480;9.688;2023-11-22T03:11:29;4.70;;;4.00;;
2406;SDS011;37709;53.480;9.688;2023-11-22T03:13:56;6.13;;;3.90;;
2406;SDS011;37709;53.480;9.688;2023-11-22T03:16:26;5.83;;;4.43;;
2406;SDS011;37709;53.480;9.688;2023-11-22T03:18:54;6.80;;;3.60;;
2406;SDS011;37709;53.480;9.688;2023-11-22T03:21:24;4.50;;;3.50;;
2406;SDS011;37709;53.480;9.688;2023-11-22T03:23:54;5.90;;;3.80;;
2406;SDS011;37709;53.480;9.688;2023-11-22T03:26:22;5.47;;;3.70;;
2406;SDS011;37709;53.480;9.688;2023-11-22T03:28:51;7.57;;;3.80;;
2406;SDS011;37709;53.480;9.688;2023-11-22T03:31:20;4.60;;;3.20;;
2406;SDS011;37709;53.480;9.688;2023-11-22T03:33:48;4.73;;;3.40;;
2406;SDS011;37709;53.480;9.688;2023-11-22T03:36:16;5.90;;;3.57;;
2406;SDS011;37709;53.480;9.688;2023-11-22T03:38:44;7.10;;;3.70;;
2406;SDS011;37709;53.480;9.688;2023-11-22T03:41:13;5.83;;;3.10;;
2406;SDS011;37709;53.480;9.688;2023-11-22T03:43:41;5.03;;;3.10;;
2406;SDS011;37709;53.480;9.688;2023-11-22T03:46:09;3.80;;;3.07;;
2406;SDS011;37709;53.480;9.688;2023-11-22T03:48:39;5.37;;;3.23;;
2406;SDS011;37709;53.480;9.688;2023-11-22T03:51:08;4.10;;;3.30;;
2406;SDS011;37709;53.480;9.688;2023-11-22T03:53:36;4.50;;;3.20;;
2406;SDS011;37709;53.480;9.688;2023-11-22T03:56:04;4.90;;;2.87;;
2406;SDS011;37709;53.480;9.688;2023-11-22T03:58:32;5.67;;;4.00;;
2406;SDS011;37709;53.480;9.688;2023-11-22T04:01:01;7.13;;;3.30;;
2406;SDS011;37709;53.480;9.688;2023-11-22T04:03:29;4.33;;;2.90;;
2406;SDS011;37709;53.480;9.688;2023-11-22T04:05:57;5.10;;;3.67;;
2406;SDS011;37709;53.480;9.688;2023-11-22T04:08:25;4.63;;;3.30;;
2406;SDS011;37709;53.480;9.688;2023-11-22T04:10:52;5.37;;;3.40;;
2406;SDS011;37709;53.480;9.688;2023-11-22T04:13:21;5.17;;;3.83;;
2406;SDS011;37709;53.480;9.688;2023-11-22T04:15:52;5.37;;;3.40;;
2406;SDS011;37709;53.480;9.688;2023-11-22T04:18:20;4.80;;;3.33;;
2406;SDS011;37709;53.480;9.688;2023-11-22T04:20:48;5.57;;;3.63;;
2406;SDS011;37709;53.480;9.688;2023-11-22T04:23:18;5.50;;;4.17;;
2406;SDS011;37709;53.480;9.688;2023-11-22T04:25:46;6.93;;;4.00;;
2406;SDS011;37709;53.480;9.688;2023-11-22T04:28:17;7.00;;;3.97;;
2406;SDS011;37709;53.480;9.688;2023-11-22T04:30:45;4.50;;;3.60;;
2406;SDS011;37709;53.480;9.688;2023-11-22T04:33:13;6.63;;;3.90;;
2406;SDS011;37709;53.480;9.688;2023-11-22T04:35:42;5.27;;;3.60;;
2406;SDS011;37709;53.480;9.688;2023-11-22T04:38:10;6.17;;;4.63;;
2406;SDS011;37709;53.480;9.688;2023-11-22T04:40:37;6.83;;;4.10;;
2406;SDS011;37709;53.480;9.688;2023-11-22T04:43:05;5.10;;;3.60;;
2406;SDS011;37709;53.480;9.688;2023-11-22T04:45:34;5.90;;;3.63;;
2406;SDS011;37709;53.480;9.688;2023-11-22T04:48:02;4.27;;;3.40;;
2406;SDS011;37709;53.480;9.688;2023-11-22T04:50:30;4.23;;;3.83;;
2406;SDS011;37709;53.480;9.688;2023-11-22T04:52:58;4.63;;;4.13;;
2406;SDS011;37709;53.480;9.688;2023-11-22T04:55:26;4.77;;;3.90;;
2406;SDS011;37709;53.480;9.688;2023-11-22T04:57:56;4.70;;;3.40;;
2406;SDS011;37709;53.480;9.688;2023-11-22T05:00:24;4.83;;;3.40;;
2406;SDS011;37709;53.480;9.688;2023-11-22T05:02:53;4.73;;;3.67;;
2406;SDS011;37709;53.480;9.688;2023-11-22T05:05:21;6.00;;;3.97;;
2406;SDS011;37709;53.480;9.688;2023-11-22T05:07:49;4.90;;;3.77;;
2406;SDS011;37709;53.480;9.688;2023-11-22T05:10:17;5.17;;;3.70;;
2406;SDS011;37709;53.480;9.688;2023-11-22T05:12:46;4.37;;;3.10;;
2406;SDS011;37709;53.480;9.688;2023-11-22T05:15:14;7.50;;;4.10;;
2406;SDS011;37709;53.480;9.688;2023-11-22T05:17:42;6.93;;;4.47;;
2406;SDS011;37709;53.480;9.688;2023-11-22T05:20:10;3.97;;;3.50;;
2406;SDS011;37709;53.480;9.688;2023-11-22T05:22:39;4.33;;;3.53;;
2406;SDS011;37709;53.480;9.688;2023-11-22T05:25:07;6.10;;;4.93;;
2406;SDS011;37709;53.480;9.688;2023-11-22T05:27:35;5.43;;;3.97;;
2406;SDS011;37709;53.480;9.688;2023-11-22T05:30:04;5.10;;;3.97;;
2406;SDS011;37709;53.480;9.688;2023-11-22T05:32:32;9.37;;;4.20;;
2406;SDS011;37709;53.480;9.688;2023-11-22T05:35:00;7.03;;;5.10;;
2406;SDS011;37709;53.480;9.688;2023-11-22T05:37:28;6.90;;;5.13;;
2406;SDS011;37709;53.480;9.688;2023-11-22T05:39:55;6.10;;;5.30;;
2406;SDS011;37709;53.480;9.688;2023-11-22T05:42:23;6.33;;;4.17;;
2406;SDS011;37709;53.480;9.688;2023-11-22T05:44:51;5.70;;;4.10;;
2406;SDS011;37709;53.480;9.688;2023-11-22T05:47:20;8.50;;;6.00;;
2406;SDS011;37709;53.480;9.688;2023-11-22T05:49:48;5.03;;;3.83;;
2406;SDS011;37709;53.480;9.688;2023-11-22T05:52:17;7.63;;;5.80;;
2406;SDS011;37709;53.480;9.688;2023-11-22T05:54:45;9.17;;;5.30;;
2406;SDS011;37709;53.480;9.688;2023-11-22T05:57:14;6.87;;;4.97;;
2406;SDS011;37709;53.480;9.688;2023-11-22T05:59:43;7.73;;;5.47;;
2406;SDS011;37709;53.480;9.688;2023-11-22T06:02:11;7.73;;;5.80;;
2406;SDS011;37709;53.480;9.688;2023-11-22T06:04:39;6.87;;;4.17;;
2406;SDS011;37709;53.480;9.688;2023-11-22T06:07:08;6.57;;;4.80;;
2406;SDS011;37709;53.480;9.688;2023-11-22T06:09:36;5.50;;;4.87;;
2406;SDS011;37709;53.480;9.688;2023-11-22T06:12:05;7.20;;;5.27;;
2406;SDS011;37709;53.480;9.688;2023-11-22T06:14:33;6.20;;;4.97;;
2406;SDS011;37709;53.480;9.688;2023-11-22T06:17:00;6.83;;;5.00;;
2406;SDS011;37709;53.480;9.688;2023-11-22T06:19:29;7.90;;;4.70;;
2406;SDS011;37709;53.480;9.688;2023-11-22T06:21:58;10.53;;;5.40;;
2406;SDS011;37709;53.480;9.688;2023-11-22T06:24:28;6.90;;;4.90;;
2406;SDS011;37709;53.480;9.688;2023-11-22T06:26:55;6.20;;;4.90;;
2406;SDS011;37709;53.480;9.688;2023-11-22T06:29:23;6.80;;;5.57;;
2406;SDS011;37709;53.480;9.688;2023-11-22T06:31:51;11.18;;;7.28;;
2406;SDS011;37709;53.480;9.688;2023-11-22T06:34:22;8.67;;;6.67;;
2406;SDS011;37709;53.480;9.688;2023-11-22T06:36:54;9.77;;;6.80;;
2406;SDS011;37709;53.480;9.688;2023-11-22T06:39:22;8.07;;;5.83;;
2406;SDS011;37709;53.480;9.688;2023-11-22T06:41:51;9.53;;;6.40;;
2406;SDS011;37709;53.480;9.688;2023-11-22T06:44:19;9.23;;;6.30;;
2406;SDS011;37709;53.480;9.688;2023-11-22T06:46:53;11.40;;;7.37;;
2406;SDS011;37709;53.480;9.688;2023-11-22T06:49:22;10.97;;;7.30;;
2406;SDS011;37709;53.480;9.688;2023-11-22T06:51:50;10.07;;;6.63;;
2406;SDS011;37709;53.480;9.688;2023-11-22T06:54:19;8.37;;;6.80;;
2406;SDS011;37709;53.480;9.688;2023-11-22T06:56:47;10.73;;;7.17;;
2406;SDS011;37709;53.480;9.688;2023-11-22T06:59:15;10.80;;;7.50;;
2406;SDS011;37709;53.480;9.688;2023-11-22T07:01:44;10.67;;;7.20;;
2406;SDS011;37709;53.480;9.688;2023-11-22T07:07:06;12.17;;;7.60;;
2406;SDS011;37709;53.480;9.688;2023-11-22T07:09:41;14.10;;;8.70;;
2406;SDS011;37709;53.480;9.688;2023-11-22T07:12:09;14.00;;;7.63;;
2406;SDS011;37709;53.480;9.688;2023-11-22T07:14:37;9.47;;;6.80;;
2406;SDS011;37709;53.480;9.688;2023-11-22T07:17:07;15.10;;;8.30;;
2406;SDS011;37709;53.480;9.688;2023-11-22T07:19:37;8.40;;;6.90;;
2406;SDS011;37709;53.480;9.688;2023-11-22T07:22:05;11.20;;;8.38;;
2406;SDS011;37709;53.480;9.688;2023-11-22T07:24:43;10.73;;;6.67;;
2406;SDS011;37709;53.480;9.688;2023-11-22T07:27:11;9.80;;;6.70;;
2406;SDS011;37709;53.480;9.688;2023-11-22T07:29:41;11.13;;;6.80;;
2406;SDS011;37709;53.480;9.688;2023-11-22T07:32:10;13.23;;;6.60;;
2406;SDS011;37709;53.480;9.688;2023-11-22T07:34:38;9.30;;;6.13;;
2406;SDS011;37709;53.480;9.688;2023-11-22T07:37:08;11.00;;;7.07;;
2406;SDS011;37709;53.480;9.688;2023-11-22T07:42:31;18.90;;;8.20;;
2406;SDS011;37709;53.480;9.688;2023-11-22T07:45:03;10.33;;;7.00;;
2406;SDS011;37709;53.480;9.688;2023-11-22T07:47:31;8.93;;;6.60;;
2406;SDS011;37709;53.480;9.688;2023-11-22T07:50:03;8.83;;;6.37;;
2406;SDS011;37709;53.480;9.688;2023-11-22T07:52:33;12.20;;;6.83;;
2406;SDS011;37709;53.480;9.688;2023-11-22T07:55:04;8.30;;;6.30;;
2406;SDS011;37709;53.480;9.688;2023-11-22T07:57:35;8.47;;;6.10;;
2406;SDS011;37709;53.480;9.688;2023-11-22T08:00:02;8.57;;;6.90;;
2406;SDS011;37709;53.480;9.688;2023-11-22T08:02:39;8.70;;;6.43;;
2406;SDS011;37709;53.480;9.688;2023-11-22T08:05:11;9.90;;;6.30;;
2406;SDS011;37709;53.480;9.688;2023-11-22T08:07:39;9.33;;;6.07;;
2406;SDS011;37709;53.480;9.688;2023-11-22T08:10:08;11.07;;;6.27;;
2406;SDS011;37709;53.480;9.688;2023-11-22T08:12:36;10.20;;;6.20;;
2406;SDS011;37709;53.480;9.688;2023-11-22T08:15:05;10.40;;;7.03;;
2406;SDS011;37709;53.480;9.688;2023-11-22T08:17:38;11.33;;;7.17;;
2406;SDS011;37709;53.480;9.688;2023-11-22T08:20:08;11.17;;;6.63;;
2406;SDS011;37709;53.480;9.688;2023-11-22T08:22:44;10.17;;;6.00;;
2406;SDS011;37709;53.480;9.688;2023-11-22T08:25:12;9.20;;;6.37;;
2406;SDS011;37709;53.480;9.688;2023-11-22T08:27:40;10.00;;;7.07;;
2406;SDS011;37709;53.480;9.688;2023-11-22T08:30:09;10.38;;;7.40;;
2406;SDS011;37709;53.480;9.688;2023-11-22T08:32:42;10.17;;;7.57;;
2406;SDS011;37709;53.480;9.688;2023-11-22T08:35:14;10.27;;;8.00;;
2406;SDS011;37709;53.480;9.688;2023-11-22T08:37:42;11.23;;;6.80;;
2406;SDS011;37709;53.480;9.688;2023-11-22T08:40:11;11.83;;;7.20;;
2406;SDS011;37709;53.480;9.688;2023-11-22T08:42:40;8.47;;;6.90;;
2406;SDS011;37709;53.480;9.688;2023-11-22T08:45:11;10.60;;;6.57;;
2406;SDS011;37709;53.480;9.688;2023-11-22T08:47:39;8.70;;;7.20;;
2406;SDS011;37709;53.480;9.688;2023-11-22T08:50:08;9.27;;;6.83;;
2406;SDS011;37709;53.480;9.688;2023-11-22T08:52:39;13.73;;;7.17;;
2406;SDS011;37709;53.480;9.688;2023-11-22T08:55:10;9.00;;;6.60;;
2406;SDS011;37709;53.480;9.688;2023-11-22T08:57:44;10.60;;;7.07;;
2406;SDS011;37709;53.480;9.688;2023-11-22T09:00:13;13.27;;;9.20;;
2406;SDS011;37709;53.480;9.688;2023-11-22T09:02:42;12.10;;;8.57;;
2406;SDS011;37709;53.480;9.688;2023-11-22T09:05:11;10.33;;;7.70;;
2406;SDS011;37709;53.480;9.688;2023-11-22T09:07:40;10.43;;;7.00;;
2406;SDS011;37709;53.480;9.688;2023-11-22T09:10:08;13.50;;;9.95;;
2406;SDS011;37709;53.480;9.688;2023-11-22T09:12:38;9.97;;;8.17;;
2406;SDS011;37709;53.480;9.688;2023-11-22T09:15:10;13.33;;;8.57;;
2406;SDS011;37709;53.480;9.688;2023-11-22T09:17:41;8.97;;;6.87;;
2406;SDS011;37709;53.480;9.688;2023-11-22T09:20:16;7.63;;;6.30;;
2406;SDS011;37709;53.480;9.688;2023-11-22T09:22:44;12.97;;;7.73;;
2406;SDS011;37709;53.480;9.688;2023-11-22T09:25:14;9.00;;;6.80;;
2406;SDS011;37709;53.480;9.688;2023-11-22T09:27:44;8.30;;;6.77;;
2406;SDS011;37709;53.480;9.688;2023-11-22T09:30:15;8.53;;;6.50;;
2406;SDS011;37709;53.480;9.688;2023-11-22T09:33:00;9.10;;;6.60;;
2406;SDS011;37709;53.480;9.688;2023-11-22T09:35:29;8.77;;;6.30;;
2406;SDS011;37709;53.480;9.688;2023-11-22T09:37:58;7.43;;;5.97;;
2406;SDS011;37709;53.480;9.688;2023-11-22T09:40:27;12.73;;;7.33;;
2406;SDS011;37709;53.480;9.688;2023-11-22T09:43:04;5.47;;;4.97;;
2406;SDS011;37709;53.480;9.688;2023-11-22T09:45:31;8.53;;;5.70;;
2406;SDS011;37709;53.480;9.688;2023-11-22T09:47:59;13.70;;;5.77;;
2406;SDS011;37709;53.480;9.688;2023-11-22T09:52:58;8.80;;;7.20;;
2406;SDS011;37709;53.480;9.688;2023-11-22T09:55:28;7.67;;;5.83;;
2406;SDS011;37709;53.480;9.688;2023-11-22T09:57:58;5.37;;;4.87;;
2406;SDS011;37709;53.480;9.688;2023-11-22T10:00:28;5.60;;;5.00;;
2406;SDS011;37709;53.480;9.688;2023-11-22T10:02:58;5.93;;;4.93;;
2406;SDS011;37709;53.480;9.688;2023-11-22T10:05:29;8.93;;;5.60;;
2406;SDS011;37709;53.480;9.688;2023-11-22T10:07:57;5.90;;;4.70;;
2406;SDS011;37709;53.480;9.688;2023-11-22T10:10:27;7.47;;;4.73;;
2406;SDS011;37709;53.480;9.688;2023-11-22T10:12:58;8.03;;;4.93;;
2406;SDS011;37709;53.480;9.688;2023-11-22T10:15:27;6.87;;;5.00;;
2406;SDS011;37709;53.480;9.688;2023-11-22T10:17:56;8.40;;;6.00;;
2406;SDS011;37709;53.480;9.688;2023-11-22T10:20:24;6.73;;;4.80;;
2406;SDS011;37709;53.480;9.688;2023-11-22T10:22:55;7.33;;;5.50;;
2406;SDS011;37709;53.480;9.688;2023-11-22T10:25:26;7.23;;;5.67;;
2406;SDS011;37709;53.480;9.688;2023-11-22T10:27:53;5.43;;;4.50;;
2406;SDS011;37709;53.480;9.688;2023-11-22T10:30:22;5.60;;;4.77;;
2406;SDS011;37709;53.480;9.688;2023-11-22T10:32:52;5.80;;;5.13;;
2406;SDS011;37709;53.480;9.688;2023-11-22T10:35:23;6.47;;;5.00;;
2406;SDS011;37709;53.480;9.688;2023-11-22T10:37:52;5.13;;;4.07;;
2406;SDS011;37709;53.480;9.688;2023-11-22T10:40:20;5.60;;;4.67;;
2406;SDS011;37709;53.480;9.688;2023-11-22T10:42:47;5.73;;;4.63;;
2406;SDS011;37709;53.480;9.688;2023-11-22T10:45:19;5.73;;;4.57;;
2406;SDS011;37709;53.480;9.688;2023-11-22T10:47:49;6.50;;;5.13;;
2406;SDS011;37709;53.480;9.688;2023-11-22T10:50:21;5.53;;;5.00;;
2406;SDS011;37709;53.480;9.688;2023-11-22T10:52:49;4.43;;;4.03;;
2406;SDS011;37709;53.480;9.688;2023-11-22T10:55:26;7.17;;;4.40;;
2406;SDS011;37709;53.480;9.688;2023-11-22T10:57:59;4.73;;;4.20;;
2406;SDS011;37709;53.480;9.688;2023-11-22T11:00:32;5.20;;;4.70;;
2406;SDS011;37709;53.480;9.688;2023-11-22T11:03:03;4.53;;;4.03;;
2406;SDS011;37709;53.480;9.688;2023-11-22T11:05:33;4.80;;;4.40;;
2406;SDS011;37709;53.480;9.688;2023-11-22T11:08:08;7.00;;;4.33;;
2406;SDS011;37709;53.480;9.688;2023-11-22T11:10:42;5.03;;;4.40;;
2406;SDS011;37709;53.480;9.688;2023-11-22T11:13:13;4.90;;;4.07;;
2406;SDS011;37709;53.480;9.688;2023-11-22T11:15:41;6.90;;;3.80;;
2406;SDS011;37709;53.480;9.688;2023-11-22T11:18:14;5.10;;;4.50;;
2406;SDS011;37709;53.480;9.688;2023-11-22T11:20:48;3.97;;;3.40;;
2406;SDS011;37709;53.480;9.688;2023-11-22T11:23:17;4.87;;;4.37;;
2406;SDS011;37709;53.480;9.688;2023-11-22T11:25:49;5.37;;;4.10;;
2406;SDS011;37709;53.480;9.688;2023-11-22T11:28:24;4.10;;;3.70;;
2406;SDS011;37709;53.480;9.688;2023-11-22T11:36:25;3.90;;;3.50;;
2406;SDS011;37709;53.480;9.688;2023-11-22T11:38:53;3.77;;;3.47;;
2406;SDS011;37709;53.480;9.688;2023-11-22T11:41:25;6.57;;;3.60;;
2406;SDS011;37709;53.480;9.688;2023-11-22T11:43:56;4.20;;;3.80;;
2406;SDS011;37709;53.480;9.688;2023-11-22T11:46:27;3.50;;;3.20;;
2406;SDS011;37709;53.480;9.688;2023-11-22T11:48:56;5.20;;;3.90;;
2406;SDS011;37709;53.480;9.688;2023-11-22T11:51:24;3.50;;;3.20;;
2406;SDS011;37709;53.480;9.688;2023-11-22T11:53:54;4.00;;;3.30;;
2406;SDS011;37709;53.480;9.688;2023-11-22T11:56:22;3.83;;;2.93;;
2406;SDS011;37709;53.480;9.688;2023-11-22T11:58:53;3.27;;;2.97;;
2406;SDS011;37709;53.480;9.688;2023-11-22T12:01:28;5.13;;;2.53;;
2406;SDS011;37709;53.480;9.688;2023-11-22T12:04:02;2.93;;;2.70;;
2406;SDS011;37709;53.480;9.688;2023-11-22T12:06:30;3.93;;;2.60;;
2406;SDS011;37709;53.480;9.688;2023-11-22T12:09:03;2.97;;;2.60;;
2406;SDS011;37709;53.480;9.688;2023-11-22T12:11:32;3.17;;;2.23;;
2406;SDS011;37709;53.480;9.688;2023-11-22T12:16:53;3.33;;;2.10;;
2406;SDS011;37709;53.480;9.688;2023-11-22T12:19:23;2.93;;;2.50;;
2406;SDS011;37709;53.480;9.688;2023-11-22T12:21:50;2.07;;;1.87;;
2406;SDS011;37709;53.480;9.688;2023-11-22T12:24:19;3.63;;;2.63;;
2406;SDS011;37709;53.480;9.688;2023-11-22T12:26:48;3.20;;;2.50;;
2406;SDS011;37709;53.480;9.688;2023-11-22T12:29:16;3.05;;;2.70;;
2406;SDS011;37709;53.480;9.688;2023-11-22T12:31:48;2.83;;;2.57;;
2406;SDS011;37709;53.480;9.688;2023-11-22T12:34:18;2.80;;;2.40;;
2406;SDS011;37709;53.480;9.688;2023-11-22T12:36:46;2.50;;;1.87;;
2406;SDS011;37709;53.480;9.688;2023-11-22T12:39:16;3.27;;;2.47;;
2406;SDS011;37709;53.480;9.688;2023-11-22T12:41:48;2.63;;;2.03;;
2406;SDS011;37709;53.480;9.688;2023-11-22T12:44:32;2.40;;;2.00;;
2406;SDS011;37709;53.480;9.688;2023-11-22T12:47:00;2.00;;;1.70;;
2406;SDS011;37709;53.480;9.688;2023-11-22T12:49:45;2.87;;;2.30;;
2406;SDS011;37709;53.480;9.688;2023-11-22T12:52:14;2.75;;;2.30;;
2406;SDS011;37709;53.480;9.688;2023-11-22T12:54:42;2.40;;;2.03;;
2406;SDS011;37709;53.480;9.688;2023-11-22T12:57:14;3.30;;;1.97;;
2406;SDS011;37709;53.480;9.688;2023-11-22T12:59:52;3.17;;;2.38;;
2406;SDS011;37709;53.480;9.688;2023-11-22T13:02:21;2.30;;;1.60;;
2406;SDS011;37709;53.480;9.688;2023-11-22T13:04:49;3.07;;;2.20;;
2406;SDS011;37709;53.480;9.688;2023-11-22T13:07:17;5.43;;;1.77;;
2406;SDS011;37709;53.480;9.688;2023-11-22T13:09:51;2.10;;;1.87;;
2406;SDS011;37709;53.480;9.688;2023-11-22T13:12:19;2.40;;;2.20;;
2406;SDS011;37709;53.480;9.688;2023-11-22T13:14:47;2.10;;;1.67;;
2406;SDS011;37709;53.480;9.688;2023-11-22T13:20:08;2.30;;;1.93;;
2406;SDS011;37709;53.480;9.688;2023-11-22T13:22:44;2.10;;;1.87;;
2406;SDS011;37709;53.480;9.688;2023-11-22T13:25:16;3.20;;;2.10;;
2406;SDS011;37709;53.480;9.688;2023-11-22T13:27:46;2.07;;;1.87;;
2406;SDS011;37709;53.480;9.688;2023-11-22T13:30:17;2.58;;;2.38;;
2406;SDS011;37709;53.480;9.688;2023-11-22T13:32:54;3.17;;;2.57;;
2406;SDS011;37709;53.480;9.688;2023-11-22T13:35:27;2.23;;;1.70;;
2406;SDS011;37709;53.480;9.688;2023-11-22T13:37:58;2.47;;;2.17;;
2406;SDS011;37709;53.480;9.688;2023-11-22T13:40:26;3.00;;;2.70;;
2406;SDS011;37709;53.480;9.688;2023-11-22T13:43:01;2.20;;;2.00;;
2406;SDS011;37709;53.480;9.688;2023-11-22T13:45:34;4.27;;;2.40;;
2406;SDS011;37709;53.480;9.688;2023-11-22T13:48:09;3.30;;;2.10;;
2406;SDS011;37709;53.480;9.688;2023-11-22T13:50:38;2.10;;;1.80;;
2406;SDS011;37709;53.480;9.688;2023-11-22T13:53:09;3.00;;;2.40;;
2406;SDS011;37709;53.480;9.688;2023-11-22T13:55:38;2.83;;;2.23;;
2406;SDS011;37709;53.480;9.688;2023-11-22T13:58:10;3.20;;;2.50;;
2406;SDS011;37709;53.480;9.688;2023-11-22T14:00:40;2.60;;;2.40;;
2406;SDS011;37709;53.480;9.688;2023-11-22T14:03:10;2.10;;;1.90;;
2406;SDS011;37709;53.480;9.688;2023-11-22T14:05:38;4.13;;;2.10;;
2406;SDS011;37709;53.480;9.688;2023-11-22T14:08:06;2.57;;;1.93;;
2406;SDS011;37709;53.480;9.688;2023-11-22T14:10:36;2.60;;;2.23;;
2406;SDS011;37709;53.480;9.688;2023-11-22T14:16:02;2.00;;;1.80;;
2406;SDS011;37709;53.480;9.688;2023-11-22T14:18:32;2.07;;;1.70;;
2406;SDS011;37709;53.480;9.688;2023-11-22T14:21:06;2.67;;;1.70;;
2406;SDS011;37709;53.480;9.688;2023-11-22T14:23:33;2.50;;;2.00;;
2406;SDS011;37709;53.480;9.688;2023-11-22T14:26:02;2.57;;;1.90;;
2406;SDS011;37709;53.480;9.688;2023-11-22T14:28:32;2.13;;;1.83;;
2406;SDS011;37709;53.480;9.688;2023-11-22T14:30:59;2.60;;;2.40;;
2406;SDS011;37709;53.480;9.688;2023-11-22T14:33:28;2.70;;;2.30;;
2406;SDS011;37709;53.480;9.688;2023-11-22T14:35:59;2.30;;;1.53;;
2406;SDS011;37709;53.480;9.688;2023-11-22T14:38:29;3.57;;;2.70;;
2406;SDS011;37709;53.480;9.688;2023-11-22T14:40:58;2.33;;;2.00;;
2406;SDS011;37709;53.480;9.688;2023-11-22T14:43:28;3.23;;;2.10;;
2406;SDS011;37709;53.480;9.688;2023-11-22T14:45:56;3.00;;;2.10;;
2406;SDS011;37709;53.480;9.688;2023-11-22T14:48:23;3.07;;;2.20;;
2406;SDS011;37709;53.480;9.688;2023-11-22T14:50:54;2.97;;;2.40;;
2406;SDS011;37709;53.480;9.688;2023-11-22T14:53:23;2.03;;;1.83;;
2406;SDS011;37709;53.480;9.688;2023-11-22T14:55:53;3.77;;;2.33;;
2406;SDS011;37709;53.480;9.688;2023-11-22T14:58:23;3.17;;;2.07;;
2406;SDS011;37709;53.480;9.688;2023-11-22T15:00:56;2.47;;;2.27;;
2406;SDS011;37709;53.480;9.688;2023-11-22T15:03:24;3.60;;;2.60;;
2406;SDS011;37709;53.480;9.688;2023-11-22T15:05:58;2.77;;;2.10;;
2406;SDS011;37709;53.480;9.688;2023-11-22T15:08:26;2.60;;;2.37;;
2406;SDS011;37709;53.480;9.688;2023-11-22T15:10:55;3.40;;;2.10;;
2406;SDS011;37709;53.480;9.688;2023-11-22T15:13:23;3.87;;;2.23;;
2406;SDS011;37709;53.480;9.688;2023-11-22T15:15:52;2.63;;;2.10;;
2406;SDS011;37709;53.480;9.688;2023-11-22T15:18:20;2.87;;;2.57;;
2406;SDS011;37709;53.480;9.688;2023-11-22T15:20:49;2.03;;;1.83;;
2406;SDS011;37709;53.480;9.688;2023-11-22T15:23:18;2.53;;;2.00;;
2406;SDS011;37709;53.480;9.688;2023-11-22T15:28:42;2.30;;;1.90;;
2406;SDS011;37709;53.480;9.688;2023-11-22T15:31:18;2.50;;;1.93;;
2406;SDS011;37709;53.480;9.688;2023-11-22T15:33:49;2.10;;;1.90;;
2406;SDS011;37709;53.480;9.688;2023-11-22T15:36:17;2.17;;;1.97;;
2406;SDS011;37709;53.480;9.688;2023-11-22T15:38:44;3.10;;;2.50;;